Time;durP1;ratioP1;P1;durP2;ratioP2;P2;SDS_P1;SDS_P2;PMS_P1;PMS_P2;Temp;Humidity;BMP_temperature;BMP_pressure;BME280_temperature;BME280_humidity;BME280_pressure;Samples;Min_cycle;Max_cycle;Signal;HPM_P1;HPM_P2
2024/01/28 00:01:14;;;;;;;16.90;15.27;;;-0.50;99.90;;;;;;4987704;28;20221;-61
2024/01/28 00:03:41;;;;;;;17.60;15.57;;;-0.50;99.90;;;;;;4990576;28;20213;-61
2024/01/28 00:06:08;;;;;;;17.40;15.67;;;-0.50;99.90;;;;;;4989634;28;20538;-61
2024/01/28 00:08:35;;;;;;;18.50;16.13;;;-0.60;99.90;;;;;;4990178;28;20193;-61
2024/01/28 00:11:02;;;;;;;22.47;16.10;;;-0.50;99.90;;;;;;4990524;28;20300;-61
2024/01/28 00:13:34;;;;;;;18.07;16.37;;;-0.60;99.90;;;;;;4989229;28;20209;-61
2024/01/28 00:16:01;;;;;;;18.37;16.53;;;-0.50;99.90;;;;;;4983049;28;20288;-61
2024/01/28 00:18:29;;;;;;;21.90;15.90;;;-0.50;99.90;;;;;;4977537;28;20399;-61
2024/01/28 00:20:57;;;;;;;20.40;14.60;;;-0.50;99.90;;;;;;4988783;28;20280;-60
2024/01/28 00:23:24;;;;;;;17.07;15.43;;;-0.50;99.90;;;;;;4977676;28;20221;-62
2024/01/28 00:25:51;;;;;;;15.37;14.07;;;-0.60;99.90;;;;;;4990156;28;20201;-61
2024/01/28 00:28:17;;;;;;;16.00;14.40;;;-0.60;99.90;;;;;;4982999;28;20943;-60
2024/01/28 00:30:44;;;;;;;16.30;14.83;;;-0.60;99.90;;;;;;4959812;28;20501;-61
2024/01/28 00:33:11;;;;;;;15.73;14.37;;;-0.60;99.90;;;;;;4971953;28;20193;-61
2024/01/28 00:35:39;;;;;;;15.70;14.33;;;-0.60;99.90;;;;;;4988895;28;20224;-62
2024/01/28 00:38:06;;;;;;;18.27;15.17;;;-0.60;99.90;;;;;;4989039;28;20424;-61
2024/01/28 00:40:33;;;;;;;16.27;14.43;;;-0.60;1.00;;;;;;4988724;28;20343;-61
2024/01/28 00:43:01;;;;;;;15.00;13.63;;;-0.60;1.00;;;;;;4984445;28;20228;-61
2024/01/28 00:45:29;;;;;;;15.37;13.97;;;-0.60;1.00;;;;;;4984288;28;20217;-61
2024/01/28 00:47:56;;;;;;;15.57;14.27;;;-0.50;1.00;;;;;;4988970;28;20200;-62
2024/01/28 00:50:23;;;;;;;15.80;14.47;;;-0.60;1.00;;;;;;4981136;28;20182;-62
2024/01/28 00:52:51;;;;;;;17.23;15.13;;;-0.50;1.00;;;;;;4984960;28;20316;-60
2024/01/28 00:55:17;;;;;;;16.20;14.80;;;-0.60;1.00;;;;;;4988245;28;20245;-60
2024/01/28 00:57:44;;;;;;;16.70;15.13;;;-0.70;1.00;;;;;;4967738;28;20810;-59
2024/01/28 01:00:12;;;;;;;31.03;18.07;;;-0.70;1.00;;;;;;4986279;28;20273;-59
2024/01/28 01:02:39;;;;;;;15.87;14.63;;;-0.70;1.00;;;;;;4976884;28;20232;-59
2024/01/28 01:05:06;;;;;;;21.87;15.27;;;-0.70;1.00;;;;;;4974449;28;20213;-58
2024/01/28 01:07:33;;;;;;;16.30;14.10;;;-0.70;1.00;;;;;;4968288;28;20232;-59
2024/01/28 01:10:00;;;;;;;19.93;14.60;;;-0.70;1.00;;;;;;4980862;28;20619;-58
2024/01/28 01:12:27;;;;;;;15.73;14.30;;;-0.70;1.00;;;;;;4979841;28;20194;-59
2024/01/28 01:14:54;;;;;;;15.63;14.30;;;-0.60;1.00;;;;;;4979034;28;20578;-60
2024/01/28 01:17:21;;;;;;;15.60;14.20;;;-0.60;1.00;;;;;;4983192;28;20480;-59
2024/01/28 01:19:47;;;;;;;15.93;14.30;;;-0.60;1.00;;;;;;4979486;28;20217;-59
2024/01/28 01:22:15;;;;;;;16.60;14.47;;;-0.60;1.00;;;;;;4988138;28;20693;-58
2024/01/28 01:24:42;;;;;;;15.53;14.13;;;-0.70;1.00;;;;;;4983295;28;20217;-59
2024/01/28 01:27:09;;;;;;;15.03;13.57;;;-0.80;1.00;;;;;;4986242;28;20197;-58
2024/01/28 01:29:36;;;;;;;14.60;13.47;;;-0.80;1.00;;;;;;4992580;28;20362;-71
2024/01/28 01:32:03;;;;;;;15.47;14.13;;;-0.80;1.00;;;;;;4964833;28;20625;-60
2024/01/28 01:34:30;;;;;;;15.13;14.03;;;-0.90;1.00;;;;;;4970225;28;20661;-59
2024/01/28 01:36:57;;;;;;;16.20;14.60;;;-0.90;1.00;;;;;;4970399;28;20205;-60
2024/01/28 01:39:24;;;;;;;15.50;14.20;;;-1.00;1.00;;;;;;4983182;28;20537;-59
2024/01/28 01:41:51;;;;;;;16.30;14.87;;;-0.90;1.00;;;;;;4975901;28;20208;-59
2024/01/28 01:44:20;;;;;;;16.27;15.00;;;-0.90;1.00;;;;;;4969857;28;20216;-59
2024/01/28 01:46:47;;;;;;;15.13;14.13;;;-0.90;1.00;;;;;;4987735;28;20189;-59
2024/01/28 01:49:15;;;;;;;17.87;15.30;;;-0.90;1.00;;;;;;4986365;28;20295;-60
2024/01/28 01:51:44;;;;;;;16.37;15.00;;;-1.00;1.00;;;;;;4975355;28;20262;-59
2024/01/28 01:54:11;;;;;;;17.03;15.30;;;-1.00;1.00;;;;;;4965998;28;20226;-58
2024/01/28 01:56:38;;;;;;;21.07;17.23;;;-1.00;1.00;;;;;;4968710;28;20600;-58
2024/01/28 01:59:06;;;;;;;22.33;16.20;;;-1.00;1.00;;;;;;4964743;28;20206;-59
2024/01/28 02:01:34;;;;;;;20.77;16.60;;;-1.00;1.00;;;;;;4966762;28;20202;-62
2024/01/28 02:04:01;;;;;;;23.07;17.43;;;-1.00;1.00;;;;;;4966107;28;20573;-61
2024/01/28 02:06:29;;;;;;;18.97;17.10;;;-1.00;1.00;;;;;;4965994;28;20730;-61
2024/01/28 02:08:56;;;;;;;19.67;17.57;;;-1.00;1.00;;;;;;4968026;28;20824;-61
2024/01/28 02:11:23;;;;;;;18.40;15.97;;;-1.00;1.00;;;;;;4959455;28;20245;-59
2024/01/28 02:13:50;;;;;;;20.37;17.10;;;-1.00;1.00;;;;;;4961294;28;20199;-58
2024/01/28 02:16:17;;;;;;;31.67;18.20;;;-0.90;1.00;;;;;;4962179;28;20202;-60
2024/01/28 02:18:44;;;;;;;19.33;17.43;;;-1.00;1.00;;;;;;4966968;28;20198;-59
2024/01/28 02:21:12;;;;;;;24.57;17.63;;;-1.00;1.00;;;;;;4968708;28;20666;-60
2024/01/28 02:23:39;;;;;;;19.73;16.47;;;-1.00;1.00;;;;;;4960998;28;20413;-58
2024/01/28 02:26:06;;;;;;;19.20;17.23;;;-1.10;1.00;;;;;;4966513;28;20651;-58
2024/01/28 02:28:33;;;;;;;29.83;17.03;;;-1.10;1.00;;;;;;4961196;28;20204;-58
2024/01/28 02:31:00;;;;;;;22.53;16.97;;;-1.10;1.00;;;;;;4961541;28;20206;-58
2024/01/28 02:33:27;;;;;;;20.97;17.77;;;-1.10;1.00;;;;;;4967920;28;20198;-58
2024/01/28 02:35:54;;;;;;;29.53;17.00;;;-1.10;1.00;;;;;;4967807;28;20305;-59
2024/01/28 02:38:22;;;;;;;27.53;17.93;;;-1.10;99.90;;;;;;4967991;28;20240;-58
2024/01/28 02:40:52;;;;;;;26.20;17.03;;;-1.10;1.00;;;;;;4963096;28;20209;-58
2024/01/28 02:43:19;;;;;;;19.37;17.37;;;-1.10;99.90;;;;;;4966045;28;20194;-58
2024/01/28 02:45:46;;;;;;;22.90;18.37;;;-1.10;99.90;;;;;;4965938;28;20229;-58
2024/01/28 02:48:13;;;;;;;25.37;17.83;;;-1.10;99.90;;;;;;4963508;28;20325;-59
2024/01/28 02:50:40;;;;;;;18.93;17.03;;;-1.10;99.90;;;;;;4958638;28;20535;-58
2024/01/28 02:53:07;;;;;;;21.33;18.17;;;-1.10;99.90;;;;;;4966817;28;20264;-58
2024/01/28 02:55:34;;;;;;;24.13;19.87;;;-1.20;99.90;;;;;;4986545;28;20205;-57
2024/01/28 02:58:01;;;;;;;31.40;20.37;;;-1.10;1.00;;;;;;4974357;28;20255;-58
2024/01/28 03:04:29;;;;;;;23.67;17.57;;;-1.10;1.00;;;;;;4983452;28;20628;-59
2024/01/28 03:06:56;;;;;;;23.20;18.10;;;-1.10;99.90;;;;;;4964920;28;20194;-58
2024/01/28 03:09:24;;;;;;;19.50;17.30;;;-1.20;99.90;;;;;;4972712;28;20190;-61
2024/01/28 03:11:51;;;;;;;20.33;16.03;;;-1.20;99.90;;;;;;4987501;28;20202;-58
2024/01/28 03:14:18;;;;;;;19.63;17.07;;;-1.10;1.00;;;;;;4982125;28;20212;-67
2024/01/28 03:16:46;;;;;;;18.23;15.80;;;-1.10;1.00;;;;;;4982285;28;20225;-57
2024/01/28 03:19:13;;;;;;;17.43;15.40;;;-1.10;1.00;;;;;;4978107;28;20598;-57
2024/01/28 03:21:40;;;;;;;16.93;15.53;;;-1.10;1.00;;;;;;4982466;28;20197;-57
2024/01/28 03:24:07;;;;;;;16.43;14.90;;;-1.10;1.00;;;;;;4971994;28;20726;-58
2024/01/28 03:26:35;;;;;;;15.87;14.67;;;-1.10;1.00;;;;;;4986578;28;20240;-57
2024/01/28 03:29:07;;;;;;;15.73;14.40;;;-1.10;1.00;;;;;;4982061;28;20194;-57
2024/01/28 03:31:34;;;;;;;15.33;14.23;;;-1.00;1.00;;;;;;4980843;28;20201;-58
2024/01/28 03:34:01;;;;;;;15.77;14.37;;;-1.00;1.00;;;;;;4984810;28;20190;-58
2024/01/28 03:36:28;;;;;;;20.00;15.90;;;-1.00;1.00;;;;;;4974842;28;20201;-58
2024/01/28 03:38:55;;;;;;;15.97;14.87;;;-0.90;1.00;;;;;;4977984;28;20191;-58
2024/01/28 03:41:22;;;;;;;16.37;14.83;;;-0.90;1.00;;;;;;4959111;28;20600;-58
2024/01/28 03:43:49;;;;;;;16.47;14.90;;;-0.90;1.00;;;;;;4962974;28;20337;-58
2024/01/28 03:46:16;;;;;;;15.67;14.23;;;-0.90;1.00;;;;;;4981594;28;20209;-57
2024/01/28 03:48:43;;;;;;;16.13;14.73;;;-0.90;1.00;;;;;;4978697;28;20691;-57
2024/01/28 03:51:12;;;;;;;15.80;14.20;;;-0.90;1.00;;;;;;4977126;28;20425;-57
2024/01/28 03:53:39;;;;;;;16.23;14.47;;;-0.90;1.00;;;;;;4980490;28;20238;-58
2024/01/28 03:56:07;;;;;;;15.27;13.97;;;-0.90;1.00;;;;;;4984448;28;20589;-66
2024/01/28 03:58:33;;;;;;;14.73;13.53;;;-0.90;1.00;;;;;;4984263;28;20264;-59
2024/01/28 04:01:00;;;;;;;14.80;13.60;;;-0.90;1.00;;;;;;4983532;28;20673;-58
2024/01/28 04:03:28;;;;;;;14.87;13.77;;;-0.90;1.00;;;;;;4953041;28;20215;-60
2024/01/28 04:05:54;;;;;;;18.27;14.10;;;-0.90;1.00;;;;;;4973754;28;20221;-58
2024/01/28 04:08:21;;;;;;;17.63;15.67;;;-0.90;1.00;;;;;;4979526;28;20241;-58
2024/01/28 04:10:48;;;;;;;16.20;14.80;;;-1.00;1.00;;;;;;4983988;28;20225;-58
2024/01/28 04:13:16;;;;;;;14.67;13.30;;;-1.10;1.00;;;;;;4983826;28;20550;-57
2024/01/28 04:15:43;;;;;;;15.47;13.90;;;-1.00;1.00;;;;;;4984571;28;20240;-57
2024/01/28 04:18:10;;;;;;;16.10;14.50;;;-1.00;1.00;;;;;;4981022;28;20229;-58
2024/01/28 04:20:40;;;;;;;14.93;13.93;;;-1.00;1.00;;;;;;4983158;28;20198;-57
2024/01/28 04:23:07;;;;;;;15.00;14.07;;;-1.10;1.00;;;;;;4973106;28;20194;-61
2024/01/28 04:25:34;;;;;;;15.87;14.63;;;-1.10;1.00;;;;;;4962882;28;20304;-60
2024/01/28 04:28:01;;;;;;;15.20;13.90;;;-1.10;1.00;;;;;;4984032;28;20202;-60
2024/01/28 04:30:27;;;;;;;16.70;14.77;;;-1.10;1.00;;;;;;4971892;28;20197;-60
2024/01/28 04:32:54;;;;;;;15.20;14.00;;;-1.00;1.00;;;;;;4988852;28;20197;-58
2024/01/28 04:35:21;;;;;;;15.40;14.00;;;-1.10;1.00;;;;;;4986483;28;20541;-57
2024/01/28 04:37:48;;;;;;;15.63;14.50;;;-1.20;1.00;;;;;;4986724;28;20222;-57
2024/01/28 04:40:15;;;;;;;15.33;13.93;;;-1.30;1.00;;;;;;4969534;28;20256;-58
2024/01/28 04:42:42;;;;;;;17.20;14.20;;;-1.30;1.00;;;;;;4985439;28;20639;-59
2024/01/28 04:45:11;;;;;;;14.97;13.53;;;-1.30;1.00;;;;;;4985294;28;20280;-58
2024/01/28 04:47:38;;;;;;;15.07;13.73;;;-1.30;1.00;;;;;;4988004;28;20204;-58
2024/01/28 04:50:07;;;;;;;16.60;15.00;;;-1.30;1.00;;;;;;4969765;28;20562;-59
2024/01/28 04:52:34;;;;;;;15.90;14.40;;;-1.40;1.00;;;;;;4988516;28;20209;-58
2024/01/28 04:55:01;;;;;;;18.97;14.90;;;-1.40;1.00;;;;;;4988637;28;20655;-58
2024/01/28 04:57:28;;;;;;;16.00;14.60;;;-1.40;1.00;;;;;;4985484;28;20582;-58
2024/01/28 04:59:55;;;;;;;15.07;13.87;;;-1.40;1.00;;;;;;4985176;28;20662;-58
2024/01/28 05:02:22;;;;;;;16.23;14.57;;;-1.40;1.00;;;;;;4981844;28;20227;-58
2024/01/28 05:04:49;;;;;;;16.10;14.70;;;-1.40;1.00;;;;;;4986806;28;20245;-59
2024/01/28 05:07:17;;;;;;;16.33;14.93;;;-1.40;1.00;;;;;;4983897;28;20228;-59
2024/01/28 05:09:44;;;;;;;15.50;14.20;;;-1.40;1.00;;;;;;4984829;28;20288;-59
2024/01/28 05:12:11;;;;;;;15.67;14.47;;;-1.50;1.00;;;;;;4979906;28;20194;-59
2024/01/28 05:14:40;;;;;;;18.10;15.40;;;-1.50;1.00;;;;;;4982779;28;20193;-65
2024/01/28 05:17:06;;;;;;;15.57;14.23;;;-1.50;1.00;;;;;;4986785;28;20202;-61
2024/01/28 05:19:33;;;;;;;15.30;14.10;;;-1.50;1.00;;;;;;4977010;28;20562;-57
2024/01/28 05:22:00;;;;;;;15.67;14.27;;;-1.50;1.00;;;;;;4984320;28;20202;-57
2024/01/28 05:24:27;;;;;;;15.43;14.03;;;-1.60;1.00;;;;;;4987395;28;20217;-58
2024/01/28 05:26:54;;;;;;;15.93;14.60;;;-1.50;1.00;;;;;;4969389;28;20211;-57
2024/01/28 05:29:21;;;;;;;15.37;14.17;;;-1.50;1.00;;;;;;4986633;28;20624;-57
2024/01/28 05:31:48;;;;;;;14.93;13.83;;;-1.50;1.00;;;;;;4969838;28;20738;-58
2024/01/28 05:34:15;;;;;;;15.17;13.80;;;-1.50;1.00;;;;;;4982222;28;20607;-58
2024/01/28 05:36:42;;;;;;;16.33;13.80;;;-1.50;1.00;;;;;;4985615;28;20331;-58
2024/01/28 05:39:09;;;;;;;15.13;13.83;;;-1.60;1.00;;;;;;4980565;28;20197;-58
2024/01/28 05:41:36;;;;;;;15.17;13.83;;;-1.60;1.00;;;;;;4987038;28;20205;-58
2024/01/28 05:44:03;;;;;;;15.87;14.57;;;-1.60;1.00;;;;;;4983241;28;20198;-58
2024/01/28 05:46:30;;;;;;;15.67;14.27;;;-1.60;1.00;;;;;;4986069;28;20673;-62
2024/01/28 05:48:57;;;;;;;15.17;13.97;;;-1.50;1.00;;;;;;4979798;28;20474;-57
2024/01/28 05:51:26;;;;;;;15.10;13.63;;;-1.40;1.00;;;;;;4983384;28;20530;-57
2024/01/28 05:53:57;;;;;;;14.77;13.50;;;-1.40;1.00;;;;;;4984413;28;20594;-58
2024/01/28 05:56:23;;;;;;;15.27;13.93;;;-1.40;1.00;;;;;;4986235;28;20603;-57
2024/01/28 05:58:50;;;;;;;15.30;14.10;;;-1.50;1.00;;;;;;4982929;28;20198;-58
2024/01/28 06:01:18;;;;;;;15.27;14.20;;;-1.60;1.00;;;;;;4982131;28;20758;-58
2024/01/28 06:03:45;;;;;;;15.60;14.23;;;-1.80;1.00;;;;;;4969610;28;20456;-58
2024/01/28 06:06:13;;;;;;;16.33;14.90;;;-1.80;1.00;;;;;;4978511;28;20240;-59
2024/01/28 06:08:41;;;;;;;14.90;13.60;;;-1.80;1.00;;;;;;4981838;28;20186;-58
2024/01/28 06:11:09;;;;;;;15.63;14.23;;;-1.80;1.00;;;;;;4985526;28;20289;-59
2024/01/28 06:13:36;;;;;;;15.23;14.00;;;-1.90;1.00;;;;;;4988329;28;20194;-58
2024/01/28 06:16:05;;;;;;;14.63;13.57;;;-1.70;1.00;;;;;;4986460;28;20497;-59
2024/01/28 06:18:32;;;;;;;13.77;12.87;;;-1.60;1.00;;;;;;4981616;28;20276;-58
2024/01/28 06:20:59;;;;;;;15.37;14.10;;;-1.70;1.00;;;;;;4985335;28;20281;-58
2024/01/28 06:23:26;;;;;;;15.87;14.20;;;-1.50;1.00;;;;;;4984747;28;20206;-57
2024/01/28 06:25:53;;;;;;;14.57;13.47;;;-1.50;1.00;;;;;;4985235;28;20689;-58
2024/01/28 06:28:20;;;;;;;15.57;14.27;;;-1.70;1.00;;;;;;4985984;28;20281;-57
2024/01/28 06:30:47;;;;;;;15.87;14.67;;;-1.80;1.00;;;;;;4986395;28;20186;-58
2024/01/28 06:33:15;;;;;;;16.97;15.47;;;-1.90;1.00;;;;;;4967038;28;20202;-58
2024/01/28 06:35:42;;;;;;;15.60;14.27;;;-2.00;1.00;;;;;;4981645;28;20202;-73
2024/01/28 06:38:09;;;;;;;16.73;15.23;;;-2.00;1.00;;;;;;4982941;28;20716;-59
2024/01/28 06:40:38;;;;;;;15.87;14.57;;;-2.10;1.00;;;;;;4976716;28;20260;-59
2024/01/28 06:43:06;;;;;;;15.20;14.03;;;-2.10;1.00;;;;;;4968103;28;20216;-61
2024/01/28 06:45:32;;;;;;;14.87;13.87;;;-2.10;1.00;;;;;;4985583;28;20257;-61
2024/01/28 06:47:59;;;;;;;15.43;14.20;;;-2.10;1.00;;;;;;4970365;28;20730;-61
2024/01/28 06:50:26;;;;;;;30.23;22.27;;;-2.00;1.00;;;;;;4984221;28;20564;-60
2024/01/28 06:52:53;;;;;;;16.20;14.97;;;-2.00;1.00;;;;;;4984456;28;20487;-60
2024/01/28 06:55:20;;;;;;;15.63;14.37;;;-2.00;1.00;;;;;;4979017;28;20245;-61
2024/01/28 06:57:47;;;;;;;16.30;14.90;;;-1.90;1.00;;;;;;4987783;28;20252;-60
2024/01/28 07:00:14;;;;;;;14.97;13.97;;;-1.90;1.00;;;;;;4964714;28;20228;-60
2024/01/28 07:02:42;;;;;;;16.33;14.63;;;-1.90;1.00;;;;;;4988846;28;20205;-60
2024/01/28 07:05:09;;;;;;;15.47;14.03;;;-2.00;1.00;;;;;;4983700;28;20264;-60
2024/01/28 07:07:37;;;;;;;15.43;14.17;;;-2.00;1.00;;;;;;4963619;28;20597;-60
2024/01/28 07:10:05;;;;;;;16.17;14.77;;;-2.00;1.00;;;;;;4981361;28;20236;-61
2024/01/28 07:12:32;;;;;;;16.03;14.73;;;-2.10;1.00;;;;;;4963350;28;20678;-60
2024/01/28 07:14:59;;;;;;;15.37;13.97;;;-2.10;1.00;;;;;;4984897;28;20682;-60
2024/01/28 07:17:26;;;;;;;15.93;14.50;;;-2.00;1.00;;;;;;4980796;28;20245;-60
2024/01/28 07:19:53;;;;;;;15.70;14.40;;;-2.00;1.00;;;;;;4977973;28;20206;-60
2024/01/28 07:22:20;;;;;;;16.60;14.40;;;-2.00;1.00;;;;;;4985740;28;20553;-60
2024/01/28 07:24:47;;;;;;;14.53;13.33;;;-2.00;1.00;;;;;;4983605;28;20213;-60
2024/01/28 07:27:14;;;;;;;14.33;13.47;;;-1.90;1.00;;;;;;4962292;28;20213;-60
2024/01/28 07:29:41;;;;;;;14.83;13.87;;;-2.00;1.00;;;;;;4987230;28;20283;-60
2024/01/28 07:32:13;;;;;;;18.23;15.30;;;-1.90;1.00;;;;;;4991031;28;20224;-60
2024/01/28 07:34:40;;;;;;;16.20;14.90;;;-1.90;1.00;;;;;;4987342;28;20197;-60
2024/01/28 07:37:08;;;;;;;16.80;15.37;;;-1.90;1.00;;;;;;4984188;28;20223;-60
2024/01/28 07:39:35;;;;;;;22.20;19.13;;;-1.80;1.00;;;;;;4982425;28;20196;-60
2024/01/28 07:42:04;;;;;;;32.77;22.17;;;-1.80;1.00;;;;;;4980863;28;20217;-60
2024/01/28 07:44:30;;;;;;;34.13;22.67;;;-1.70;1.00;;;;;;4977011;28;20208;-60
2024/01/28 07:46:58;;;;;;;34.60;24.17;;;-1.70;1.00;;;;;;4985607;28;20296;-60
2024/01/28 07:49:28;;;;;;;38.93;24.30;;;-1.60;1.00;;;;;;4986503;28;20200;-60
2024/01/28 07:51:55;;;;;;;46.33;25.13;;;-1.60;1.00;;;;;;4983522;28;20867;-60
2024/01/28 07:54:22;;;;;;;39.60;26.40;;;-1.50;99.90;;;;;;4973647;28;20234;-60
2024/01/28 07:56:49;;;;;;;30.07;20.67;;;-1.50;99.90;;;;;;4987080;28;20288;-60
2024/01/28 07:59:17;;;;;;;27.87;21.53;;;-1.50;1.00;;;;;;4984757;28;20277;-60
2024/01/28 08:01:44;;;;;;;30.70;22.00;;;-1.40;1.00;;;;;;4982580;28;20208;-58
2024/01/28 08:04:11;;;;;;;35.77;21.97;;;-1.30;1.00;;;;;;4989390;28;20288;-57
2024/01/28 08:06:38;;;;;;;29.03;22.80;;;-1.20;99.90;;;;;;4966286;28;20238;-58
2024/01/28 08:09:05;;;;;;;30.37;20.50;;;-1.20;99.90;;;;;;4985281;28;20235;-57
2024/01/28 08:11:33;;;;;;;24.67;19.17;;;-1.10;99.90;;;;;;4989829;28;20442;-61
2024/01/28 08:14:00;;;;;;;22.30;19.93;;;-1.10;1.00;;;;;;4985530;28;20293;-58
2024/01/28 08:16:28;;;;;;;25.23;20.63;;;-1.00;1.00;;;;;;4989251;28;20374;-58
2024/01/28 08:18:57;;;;;;;23.87;19.97;;;-0.90;99.90;;;;;;4971962;28;20252;-58
2024/01/28 08:21:24;;;;;;;27.10;20.63;;;-0.90;99.90;;;;;;4989639;28;20248;-57
2024/01/28 08:23:51;;;;;;;24.90;19.60;;;-0.80;99.90;;;;;;4986208;28;20198;-59
2024/01/28 08:26:18;;;;;;;24.57;19.77;;;-0.80;99.90;;;;;;4989973;28;20275;-59
2024/01/28 08:28:45;;;;;;;24.03;20.47;;;-0.70;99.90;;;;;;4976681;28;20214;-59
2024/01/28 08:31:12;;;;;;;30.83;19.97;;;-0.70;99.90;;;;;;4983500;28;20589;-62
2024/01/28 08:33:39;;;;;;;24.57;21.03;;;-0.60;99.90;;;;;;4969391;28;20780;-61
2024/01/28 08:36:06;;;;;;;30.97;23.20;;;-0.60;99.90;;;;;;4988778;28;20224;-60
2024/01/28 08:38:34;;;;;;;40.57;24.37;;;-0.50;99.90;;;;;;4971479;28;20608;-61
2024/01/28 08:41:00;;;;;;;38.83;24.80;;;-0.40;99.90;;;;;;4964063;28;20266;-60
2024/01/28 08:43:27;;;;;;;31.83;21.67;;;-0.30;99.90;;;;;;4967039;28;20298;-60
2024/01/28 08:45:55;;;;;;;23.90;19.87;;;-0.20;99.90;;;;;;4982093;28;20232;-61
2024/01/28 08:48:22;;;;;;;23.43;19.30;;;-0.10;99.90;;;;;;4987610;28;20705;-61
2024/01/28 08:50:49;;;;;;;20.07;17.77;;;0.10;99.90;;;;;;4990226;28;20197;-59
2024/01/28 08:53:27;;;;;;;18.63;17.03;;;0.20;99.90;;;;;;4967883;28;20288;-59
2024/01/28 08:55:55;;;;;;;17.53;15.80;;;0.40;99.90;;;;;;4979767;28;20213;-60
2024/01/28 08:58:22;;;;;;;16.67;15.43;;;0.50;99.90;;;;;;4972792;28;20237;-60
2024/01/28 09:00:49;;;;;;;16.57;15.47;;;0.70;99.90;;;;;;4988322;28;20248;-60
2024/01/28 09:03:16;;;;;;;17.07;15.50;;;0.80;99.90;;;;;;4994459;28;20526;-59
2024/01/28 09:05:43;;;;;;;17.97;16.40;;;0.80;99.90;;;;;;4968348;28;20706;-60
2024/01/28 09:08:10;;;;;;;18.50;17.10;;;0.90;99.90;;;;;;4956893;28;20529;-61
2024/01/28 09:10:37;;;;;;;17.90;16.27;;;1.00;99.90;;;;;;4975416;28;20200;-61
2024/01/28 09:13:04;;;;;;;17.23;15.60;;;1.20;99.90;;;;;;4969928;28;20643;-58
2024/01/28 09:15:31;;;;;;;17.70;16.33;;;1.30;99.90;;;;;;4964339;28;20240;-58
2024/01/28 09:17:58;;;;;;;16.73;15.37;;;1.40;99.90;;;;;;4985280;28;20197;-59
2024/01/28 09:20:25;;;;;;;15.80;14.73;;;1.50;99.90;;;;;;4990606;28;20197;-65
2024/01/28 09:22:52;;;;;;;17.33;15.77;;;1.70;99.90;;;;;;4995381;28;20600;-58
2024/01/28 09:25:19;;;;;;;16.70;15.23;;;1.90;99.90;;;;;;4981787;28;20740;-58
2024/01/28 09:27:48;;;;;;;16.60;14.50;;;2.60;99.90;;;;;;4974829;28;20210;-59
2024/01/28 09:30:16;;;;;;;16.20;14.90;;;8.40;99.90;;;;;;4969494;28;20197;-59
2024/01/28 09:32:43;;;;;;;16.23;15.03;;;13.30;99.90;;;;;;4965563;28;20257;-58
2024/01/28 09:35:10;;;;;;;17.10;15.70;;;16.30;99.90;;;;;;4983215;28;20185;-59
2024/01/28 09:37:37;;;;;;;18.17;16.67;;;18.70;99.90;;;;;;4987542;28;20287;-60
2024/01/28 09:40:04;;;;;;;18.63;17.23;;;19.70;99.90;;;;;;4990397;28;20240;-59
2024/01/28 09:42:45;;;;;;;20.20;18.50;;;20.50;99.90;;;;;;4984843;28;20209;-60
2024/01/28 09:45:13;;;;;;;19.77;18.27;;;21.30;99.90;;;;;;4973398;28;20442;-60
2024/01/28 09:47:41;;;;;;;21.70;20.08;;;21.40;99.90;;;;;;4986493;28;20213;-60
2024/01/28 09:50:10;;;;;;;21.40;19.40;;;22.20;99.90;;;;;;4971048;28;20197;-60
2024/01/28 09:52:37;;;;;;;22.73;20.58;;;22.80;99.90;;;;;;4977080;28;20377;-60
2024/01/28 09:55:04;;;;;;;23.25;21.17;;;23.40;99.90;;;;;;4951635;28;20260;-60
2024/01/28 09:57:33;;;;;;;22.85;20.85;;;23.10;99.90;;;;;;4990848;28;20296;-60
2024/01/28 10:00:01;;;;;;;22.83;20.70;;;24.10;99.90;;;;;;4968765;28;20201;-60
2024/01/28 10:02:39;;;;;;;23.17;21.08;;;23.90;99.90;;;;;;4982423;28;20283;-59
2024/01/28 10:05:10;;;;;;;23.67;21.63;;;24.40;99.90;;;;;;4967019;28;20233;-59
2024/01/28 10:07:43;;;;;;;23.15;21.25;;;24.60;99.90;;;;;;4978388;28;20281;-59
2024/01/28 10:10:13;;;;;;;23.63;21.63;;;23.90;99.90;;;;;;4982820;28;20205;-70
2024/01/28 10:12:40;;;;;;;24.45;22.05;;;22.50;99.90;;;;;;4981206;28;20678;-62
2024/01/28 10:15:17;;;;;;;23.77;21.55;;;22.20;99.90;;;;;;4985676;28;20194;-64
2024/01/28 10:17:49;;;;;;;24.20;21.75;;;21.70;99.90;;;;;;4980344;28;20346;-62
2024/01/28 10:20:24;;;;;;;24.33;22.05;;;21.70;99.90;;;;;;4971131;28;20679;-62
2024/01/28 10:22:52;;;;;;;25.02;22.73;;;23.70;99.90;;;;;;4961383;28;20781;-62
2024/01/28 10:25:22;;;;;;;29.27;26.27;;;24.10;99.90;;;;;;4965902;28;20202;-62
2024/01/28 10:27:49;;;;;;;29.20;26.17;;;23.00;99.90;;;;;;4985774;28;20373;-63
2024/01/28 10:30:18;;;;;;;24.38;22.02;;;20.60;99.90;;;;;;4988189;28;20190;-62
2024/01/28 10:32:46;;;;;;;24.48;22.25;;;20.60;99.90;;;;;;4988642;28;20244;-63
2024/01/28 10:35:16;;;;;;;24.60;22.23;;;22.20;99.90;;;;;;4973509;28;20689;-62
2024/01/28 10:37:50;;;;;;;23.50;21.40;;;23.10;99.90;;;;;;4965068;28;20292;-63
2024/01/28 10:40:19;;;;;;;23.48;21.58;;;22.30;99.90;;;;;;4981609;28;20226;-62
2024/01/28 10:42:49;;;;;;;23.27;21.30;;;21.40;99.90;;;;;;4980368;28;20198;-63
2024/01/28 10:45:23;;;;;;;22.80;21.02;;;21.40;99.90;;;;;;4966050;28;20641;-62
2024/01/28 10:47:55;;;;;;;23.80;21.70;;;19.40;99.90;;;;;;4965616;28;20229;-62
2024/01/28 10:50:29;;;;;;;23.88;21.88;;;19.10;99.90;;;;;;4966203;28;20201;-62
2024/01/28 10:52:57;;;;;;;23.20;21.40;;;19.40;99.90;;;;;;4983829;28;20571;-62
2024/01/28 10:55:25;;;;;;;23.23;21.30;;;20.20;99.90;;;;;;4954513;28;20201;-62
2024/01/28 10:57:54;;;;;;;25.10;22.90;;;20.90;99.90;;;;;;4987945;28;20224;-62
2024/01/28 11:00:22;;;;;;;24.13;22.02;;;20.20;99.90;;;;;;4970153;28;20556;-63
2024/01/28 11:02:49;;;;;;;23.35;21.45;;;20.80;99.90;;;;;;4986811;28;20292;-62
2024/01/28 11:05:18;;;;;;;22.83;21.13;;;18.80;99.90;;;;;;4962547;28;20197;-61
2024/01/28 11:07:45;;;;;;;22.48;20.70;;;20.40;99.90;;;;;;4968343;28;20301;-63
2024/01/28 11:10:17;;;;;;;22.58;20.73;;;20.70;99.90;;;;;;4986017;28;20244;-64
2024/01/28 11:12:45;;;;;;;22.80;20.80;;;21.40;99.90;;;;;;4969233;28;20225;-63
2024/01/28 11:15:15;;;;;;;22.73;20.83;;;19.60;99.90;;;;;;4984771;28;20221;-62
2024/01/28 11:17:43;;;;;;;22.95;21.02;;;20.20;99.90;;;;;;4983269;28;20205;-62
2024/01/28 11:20:12;;;;;;;24.23;22.13;;;19.10;99.90;;;;;;4958588;28;20233;-62
2024/01/28 11:22:54;;;;;;;24.30;22.10;;;19.00;99.90;;;;;;4981757;28;20700;-62
2024/01/28 11:25:24;;;;;;;24.50;22.33;;;18.60;99.90;;;;;;4986044;28;20248;-62
2024/01/28 11:28:12;;;;;;;26.63;23.75;;;18.00;99.90;;;;;;4971598;28;20293;-62
2024/01/28 11:30:40;;;;;;;25.45;23.00;;;17.50;99.90;;;;;;4967313;28;20553;-62
2024/01/28 11:33:16;;;;;;;25.10;22.63;;;17.90;99.90;;;;;;4974596;28;20198;-62
2024/01/28 11:35:45;;;;;;;24.17;21.98;;;18.30;99.90;;;;;;4978655;28;20484;-62
2024/01/28 11:38:21;;;;;;;24.17;21.52;;;17.90;99.90;;;;;;4975252;28;20206;-62
2024/01/28 11:40:56;;;;;;;24.35;21.95;;;18.90;99.90;;;;;;4986270;28;20615;-62
2024/01/28 11:43:23;;;;;;;27.00;24.48;;;19.60;99.90;;;;;;4985457;28;20654;-62
2024/01/28 11:45:51;;;;;;;34.17;26.85;;;19.60;99.90;;;;;;4957702;28;20205;-63
2024/01/28 11:48:19;;;;;;;23.20;21.30;;;18.90;99.90;;;;;;4973873;28;20221;-63
2024/01/28 11:50:47;;;;;;;25.05;22.73;;;17.70;99.90;;;;;;4977834;28;20229;-62
2024/01/28 11:53:14;;;;;;;23.85;21.80;;;18.70;99.90;;;;;;4990070;28;20222;-63
2024/01/28 11:55:41;;;;;;;29.85;26.83;;;18.90;99.90;;;;;;4989669;28;20514;-62
2024/01/28 11:58:09;;;;;;;24.70;22.65;;;19.30;99.90;;;;;;4988893;28;20229;-63
2024/01/28 12:00:36;;;;;;;24.92;22.80;;;18.90;99.90;;;;;;4990732;28;20209;-62
2024/01/28 12:03:05;;;;;;;24.52;22.38;;;19.60;99.90;;;;;;4987992;28;20197;-63
2024/01/28 12:05:32;;;;;;;23.80;21.67;;;19.30;99.90;;;;;;4978895;28;20265;-62
2024/01/28 12:07:59;;;;;;;23.20;21.20;;;16.70;99.90;;;;;;4951210;28;20222;-63
2024/01/28 12:10:30;;;;;;;24.17;22.20;;;16.20;99.90;;;;;;4982098;28;20197;-75
2024/01/28 12:12:59;;;;;;;22.50;20.63;;;16.70;99.90;;;;;;4990915;28;20552;-62
2024/01/28 12:15:26;;;;;;;22.73;20.83;;;15.80;99.90;;;;;;4976106;28;20224;-62
2024/01/28 12:17:53;;;;;;;26.17;23.77;;;17.00;99.90;;;;;;4989900;28;20202;-62
2024/01/28 12:20:22;;;;;;;23.17;21.15;;;16.80;99.90;;;;;;4989068;28;20209;-63
2024/01/28 12:22:50;;;;;;;22.67;20.67;;;18.20;99.90;;;;;;4984553;28;20216;-63
2024/01/28 12:25:21;;;;;;;22.42;20.33;;;17.80;99.90;;;;;;4965151;28;20205;-63
2024/01/28 12:27:53;;;;;;;23.08;21.13;;;18.10;99.90;;;;;;4985779;28;20210;-62
2024/01/28 12:30:21;;;;;;;22.48;20.67;;;16.70;99.90;;;;;;4989976;28;20202;-62
2024/01/28 12:32:49;;;;;;;24.25;22.13;;;17.00;99.90;;;;;;4984894;28;20195;-62
2024/01/28 12:35:16;;;;;;;24.00;21.55;;;16.50;99.90;;;;;;4984259;28;20216;-62
2024/01/28 12:37:43;;;;;;;24.10;21.90;;;15.90;99.90;;;;;;4971836;28;20190;-64
2024/01/28 12:40:11;;;;;;;22.55;20.75;;;15.10;99.90;;;;;;4986922;28;20333;-65